Time;durP1;ratioP1;P1;durP2;ratioP2;P2;SDS_P1;SDS_P2;PMS_P1;PMS_P2;Temp;Humidity;BMP_temperature;BMP_pressure;BME280_temperature;BME280_humidity;BME280_pressure;Samples;Min_cycle;Max_cycle;Signal;HPM_P1;HPM_P2
2023/09/05 00:02:18;;;;;;;2.40;1.80;;;17.70;99.90;;;;;;5075797;28;20444;-81
2023/09/05 00:04:46;;;;;;;2.70;2.00;;;17.60;99.90;;;;;;5076029;28;20456;-81
2023/09/05 00:07:13;;;;;;;2.33;1.90;;;17.70;99.90;;;;;;5075637;28;21040;-81
2023/09/05 00:09:39;;;;;;;1.77;1.20;;;17.70;99.90;;;;;;5075744;28;20955;-81
2023/09/05 00:12:07;;;;;;;2.30;1.30;;;17.70;99.90;;;;;;5075682;28;20439;-80
2023/09/05 00:14:34;;;;;;;3.13;2.17;;;17.70;99.90;;;;;;5075851;28;20444;-81
2023/09/05 00:17:02;;;;;;;1.90;1.80;;;17.60;99.90;;;;;;5075419;28;20491;-81
2023/09/05 00:19:29;;;;;;;2.30;2.00;;;17.70;99.90;;;;;;5075518;28;20440;-81
2023/09/05 00:21:55;;;;;;;4.57;1.80;;;17.70;99.90;;;;;;5075745;28;20439;-81
2023/09/05 00:24:31;;;;;;;3.70;1.23;;;17.60;99.90;;;;;;5075727;28;20448;-81
2023/09/05 00:26:58;;;;;;;3.27;1.70;;;17.60;99.90;;;;;;5075820;28;20453;-81
2023/09/05 00:29:26;;;;;;;2.70;1.90;;;17.70;99.90;;;;;;5075353;28;20844;-81
2023/09/05 00:31:53;;;;;;;1.60;1.50;;;17.70;99.90;;;;;;5075521;28;20547;-81
2023/09/05 00:34:21;;;;;;;2.23;1.53;;;17.70;99.90;;;;;;5075555;28;20463;-81
2023/09/05 00:36:48;;;;;;;4.43;1.50;;;17.70;99.90;;;;;;5075032;28;20492;-81
2023/09/05 00:39:16;;;;;;;1.87;1.67;;;17.60;99.90;;;;;;5075624;28;20479;-81
2023/09/05 00:41:43;;;;;;;1.67;1.57;;;17.60;99.90;;;;;;5075164;28;20433;-81
2023/09/05 00:44:13;;;;;;;4.40;1.40;;;17.60;99.90;;;;;;5075292;28;20451;-81
2023/09/05 00:46:40;;;;;;;2.07;1.10;;;17.60;99.90;;;;;;5075195;28;20556;-81
2023/09/05 00:49:10;;;;;;;1.97;1.40;;;17.60;99.90;;;;;;5075256;28;20452;-81
2023/09/05 00:51:38;;;;;;;1.37;1.27;;;17.60;99.90;;;;;;5074862;28;20449;-81
2023/09/05 00:54:07;;;;;;;2.93;1.53;;;17.60;99.90;;;;;;5074925;28;20952;-81
2023/09/05 00:56:35;;;;;;;1.23;1.13;;;17.60;99.90;;;;;;5074358;28;20495;-81
2023/09/05 00:59:02;;;;;;;2.47;1.70;;;17.60;99.90;;;;;;5074801;28;20444;-81
2023/09/05 01:01:29;;;;;;;2.23;1.50;;;17.50;99.90;;;;;;5074753;28;20440;-81
2023/09/05 01:03:57;;;;;;;1.33;1.23;;;17.40;99.90;;;;;;5074700;28;20805;-81
2023/09/05 01:06:32;;;;;;;2.70;1.00;;;17.40;99.90;;;;;;5074735;28;20806;-81
2023/09/05 01:09:07;;;;;;;5.20;1.57;;;17.40;99.90;;;;;;5074626;28;20428;-81
2023/09/05 01:11:34;;;;;;;1.60;1.13;;;17.30;99.90;;;;;;5074893;28;20429;-81
2023/09/05 01:14:01;;;;;;;2.73;1.40;;;17.20;99.90;;;;;;5074472;28;20445;-81
2023/09/05 01:16:27;;;;;;;1.60;1.23;;;17.00;99.90;;;;;;5074552;28;20485;-81
2023/09/05 01:18:54;;;;;;;1.80;1.20;;;17.00;99.90;;;;;;5074668;28;20467;-81
2023/09/05 01:21:30;;;;;;;1.73;1.30;;;16.90;99.90;;;;;;5074342;28;20953;-81
2023/09/05 01:24:11;;;;;;;1.50;1.20;;;16.90;99.90;;;;;;5074359;28;20421;-81
2023/09/05 01:26:38;;;;;;;1.90;1.30;;;16.80;99.90;;;;;;5074413;28;20479;-81
2023/09/05 01:29:06;;;;;;;3.57;1.60;;;16.80;99.90;;;;;;5074279;28;21028;-81
2023/09/05 01:31:33;;;;;;;3.23;1.53;;;16.80;99.90;;;;;;5074361;28;20795;-81
2023/09/05 01:34:00;;;;;;;2.83;1.10;;;16.70;99.90;;;;;;5073981;28;20964;-81
2023/09/05 01:36:27;;;;;;;1.77;1.00;;;16.70;99.90;;;;;;5073888;28;20491;-81
2023/09/05 01:38:54;;;;;;;1.33;1.10;;;16.70;99.90;;;;;;5074218;28;20448;-81
2023/09/05 01:41:22;;;;;;;2.43;1.33;;;16.70;99.90;;;;;;5073890;28;20441;-81
2023/09/05 01:43:48;;;;;;;2.10;1.40;;;16.60;99.90;;;;;;5074040;28;20467;-81
2023/09/05 01:46:15;;;;;;;1.63;0.93;;;17.00;99.90;;;;;;5074166;28;20468;-81
2023/09/05 01:48:42;;;;;;;9.17;1.70;;;16.50;99.90;;;;;;5074054;28;20444;-81
2023/09/05 01:51:09;;;;;;;2.40;1.63;;;16.40;99.90;;;;;;5073757;28;20441;-81
2023/09/05 01:53:36;;;;;;;1.33;1.10;;;16.40;99.90;;;;;;5074095;28;20464;-81
2023/09/05 01:56:02;;;;;;;1.10;1.00;;;16.30;99.90;;;;;;5073792;28;20481;-81
2023/09/05 01:58:30;;;;;;;3.30;1.60;;;16.30;99.90;;;;;;5073902;28;20456;-81
2023/09/05 02:01:02;;;;;;;2.90;1.60;;;16.30;99.90;;;;;;5074074;28;20444;-81
2023/09/05 02:03:29;;;;;;;2.20;1.10;;;16.30;99.90;;;;;;5074258;28;20788;-81
2023/09/05 02:05:56;;;;;;;0.97;0.87;;;16.30;99.90;;;;;;5073437;28;21012;-81
2023/09/05 02:08:22;;;;;;;1.20;1.10;;;16.30;99.90;;;;;;5072601;28;20449;-81
2023/09/05 02:10:49;;;;;;;1.60;0.93;;;16.30;99.90;;;;;;5073415;28;20818;-81
2023/09/05 02:13:17;;;;;;;1.70;0.97;;;16.30;99.90;;;;;;5073645;28;20437;-81
2023/09/05 02:15:45;;;;;;;1.27;0.97;;;16.30;99.90;;;;;;5073496;28;20469;-81
2023/09/05 02:18:12;;;;;;;1.27;1.23;;;16.30;99.90;;;;;;5073581;28;20445;-81
2023/09/05 02:20:38;;;;;;;1.20;1.10;;;16.40;99.90;;;;;;5073764;28;20456;-81
2023/09/05 02:23:05;;;;;;;3.33;1.30;;;16.40;99.90;;;;;;5073503;28;20448;-81
2023/09/05 02:25:32;;;;;;;1.00;1.00;;;16.40;99.90;;;;;;5073455;28;20468;-81
2023/09/05 02:27:59;;;;;;;2.23;1.20;;;16.40;99.90;;;;;;5072887;28;20484;-81
2023/09/05 02:30:26;;;;;;;1.10;0.83;;;16.50;99.90;;;;;;5073889;28;20971;-81
2023/09/05 02:32:54;;;;;;;0.90;0.80;;;16.40;99.90;;;;;;5073705;28;20964;-81
2023/09/05 02:35:23;;;;;;;0.90;0.80;;;16.40;99.90;;;;;;5074009;28;20468;-81
2023/09/05 02:37:50;;;;;;;1.30;0.90;;;16.40;99.90;;;;;;5073817;28;21005;-81
2023/09/05 02:40:17;;;;;;;3.60;1.00;;;16.30;99.90;;;;;;5073471;28;20502;-81
2023/09/05 02:42:44;;;;;;;1.27;0.83;;;16.40;99.90;;;;;;5072978;28;20968;-81
2023/09/05 02:45:12;;;;;;;0.87;0.87;;;16.40;99.90;;;;;;5073071;28;20445;-81
2023/09/05 02:47:39;;;;;;;5.07;1.20;;;16.40;99.90;;;;;;5073258;28;20449;-81
2023/09/05 02:50:08;;;;;;;0.80;0.80;;;16.40;99.90;;;;;;5073243;28;20438;-81
2023/09/05 02:52:35;;;;;;;2.20;1.27;;;16.30;99.90;;;;;;5072844;28;20448;-81
2023/09/05 02:55:02;;;;;;;3.67;0.70;;;16.20;99.90;;;;;;5073107;28;20440;-81
2023/09/05 02:57:30;;;;;;;3.97;1.13;;;16.20;99.90;;;;;;5073047;28;20530;-81
2023/09/05 02:59:56;;;;;;;1.97;1.00;;;16.20;99.90;;;;;;5073138;28;20444;-81
2023/09/05 03:02:24;;;;;;;2.97;1.27;;;16.20;99.90;;;;;;5073133;28;20456;-81
2023/09/05 03:04:53;;;;;;;0.90;0.90;;;16.10;99.90;;;;;;5072878;28;20428;-81
2023/09/05 03:07:21;;;;;;;0.67;0.67;;;16.00;99.90;;;;;;5072672;28;20842;-81
2023/09/05 03:09:51;;;;;;;1.77;1.50;;;15.90;99.90;;;;;;5073044;28;20445;-81
2023/09/05 03:12:18;;;;;;;1.33;1.20;;;15.90;99.90;;;;;;5072865;28;20452;-81
2023/09/05 03:14:45;;;;;;;1.90;1.20;;;15.70;99.90;;;;;;5073003;28;20445;-81
2023/09/05 03:17:12;;;;;;;1.27;0.90;;;15.80;99.90;;;;;;5072835;28;20484;-81
2023/09/05 03:19:39;;;;;;;1.27;0.80;;;15.70;99.90;;;;;;5075205;28;20448;-81
2023/09/05 03:22:06;;;;;;;2.00;1.00;;;15.70;99.90;;;;;;5077168;28;20845;-81
2023/09/05 03:24:35;;;;;;;0.80;0.77;;;15.70;99.90;;;;;;5076965;28;20784;-81
2023/09/05 03:27:03;;;;;;;1.73;0.87;;;15.70;99.90;;;;;;5077126;28;20469;-81
2023/09/05 03:29:30;;;;;;;1.80;1.10;;;15.70;99.90;;;;;;5076210;28;20472;-81
2023/09/05 03:31:57;;;;;;;6.00;1.23;;;15.70;99.90;;;;;;5076415;28;20445;-81
2023/09/05 03:34:24;;;;;;;1.80;0.90;;;15.60;99.90;;;;;;5076288;28;20810;-81
2023/09/05 03:36:51;;;;;;;0.90;0.70;;;15.60;99.90;;;;;;5076424;28;20833;-81
2023/09/05 03:39:17;;;;;;;1.33;0.87;;;15.50;99.90;;;;;;5076217;28;20965;-81
2023/09/05 03:41:46;;;;;;;1.10;0.77;;;15.50;99.90;;;;;;5076221;28;20445;-81
2023/09/05 03:44:12;;;;;;;2.07;1.10;;;15.50;99.90;;;;;;5076165;28;20850;-81
2023/09/05 03:46:39;;;;;;;1.53;1.00;;;15.50;99.90;;;;;;5076180;28;21004;-81
2023/09/05 03:49:06;;;;;;;1.23;1.00;;;15.50;99.90;;;;;;5076293;28;20987;-81
2023/09/05 03:51:33;;;;;;;1.00;1.00;;;15.50;99.90;;;;;;5076019;28;21048;-81
2023/09/05 03:54:00;;;;;;;1.30;1.20;;;15.40;99.90;;;;;;5075928;28;20955;-81
2023/09/05 03:56:27;;;;;;;1.33;1.23;;;15.40;99.90;;;;;;5075861;28;20965;-81
2023/09/05 03:58:55;;;;;;;1.70;1.00;;;15.40;99.90;;;;;;5076494;28;20504;-81
2023/09/05 04:01:22;;;;;;;1.10;1.00;;;15.40;99.90;;;;;;5075896;28;20490;-81
2023/09/05 04:03:50;;;;;;;1.27;0.87;;;15.40;99.90;;;;;;5076123;28;20449;-81
2023/09/05 04:06:17;;;;;;;4.00;1.00;;;15.50;99.90;;;;;;5076492;28;20522;-81
2023/09/05 04:08:44;;;;;;;1.20;0.83;;;15.50;99.90;;;;;;5075996;28;20535;-81
2023/09/05 04:11:11;;;;;;;1.40;1.03;;;15.50;99.90;;;;;;5075721;28;20942;-81
2023/09/05 04:13:38;;;;;;;1.23;0.67;;;15.50;99.90;;;;;;5075709;28;20431;-81
2023/09/05 04:16:07;;;;;;;1.20;1.10;;;15.60;99.90;;;;;;5075879;28;20465;-81
2023/09/05 04:18:34;;;;;;;1.30;0.80;;;15.70;99.90;;;;;;5075735;28;20542;-81
2023/09/05 04:21:01;;;;;;;1.27;1.10;;;15.70;99.90;;;;;;5075536;28;20981;-81
2023/09/05 04:23:28;;;;;;;2.70;1.23;;;15.70;99.90;;;;;;5075729;28;20449;-81
2023/09/05 04:25:59;;;;;;;0.73;0.73;;;15.70;99.90;;;;;;5075612;28;20970;-81
2023/09/05 04:28:26;;;;;;;0.63;0.63;;;15.80;99.90;;;;;;5075311;28;20897;-81
2023/09/05 04:30:55;;;;;;;1.10;1.00;;;15.80;99.90;;;;;;5074361;28;20815;-81
2023/09/05 04:33:25;;;;;;;2.30;1.10;;;15.80;99.90;;;;;;5075287;28;20441;-81
2023/09/05 04:35:52;;;;;;;0.70;0.70;;;15.80;99.90;;;;;;5075523;28;20452;-81
2023/09/05 04:38:19;;;;;;;1.20;1.10;;;15.90;99.90;;;;;;5075453;28;20567;-81
2023/09/05 04:40:46;;;;;;;0.90;0.90;;;15.90;99.90;;;;;;5075540;28;20456;-82
2023/09/05 04:43:13;;;;;;;1.00;0.90;;;15.90;99.90;;;;;;5075370;28;20526;-81
2023/09/05 04:45:40;;;;;;;1.80;0.90;;;15.90;99.90;;;;;;5075012;28;20846;-81
2023/09/05 04:48:07;;;;;;;2.53;1.10;;;15.90;99.90;;;;;;5075325;28;20451;-81
2023/09/05 04:50:35;;;;;;;1.50;1.20;;;15.90;99.90;;;;;;5074960;28;20441;-81
2023/09/05 04:53:02;;;;;;;1.10;0.83;;;15.90;99.90;;;;;;5075064;28;20950;-81
2023/09/05 04:55:28;;;;;;;1.23;1.13;;;15.90;99.90;;;;;;5075416;28;20460;-81
2023/09/05 04:57:55;;;;;;;1.37;0.90;;;15.90;99.90;;;;;;5075086;28;20492;-80
2023/09/05 05:00:23;;;;;;;1.13;0.93;;;15.90;99.90;;;;;;5075251;28;20445;-81
2023/09/05 05:02:50;;;;;;;0.90;0.90;;;15.80;99.90;;;;;;5075016;28;20449;-81
2023/09/05 05:05:17;;;;;;;2.70;0.93;;;15.80;99.90;;;;;;5074869;28;20452;-81
2023/09/05 05:07:45;;;;;;;1.20;0.90;;;15.80;99.90;;;;;;5074878;28;20433;-81
2023/09/05 05:10:13;;;;;;;1.63;1.20;;;15.70;99.90;;;;;;5074581;28;20444;-81
2023/09/05 05:12:40;;;;;;;0.90;0.70;;;15.70;99.90;;;;;;5074536;28;20437;-81
2023/09/05 05:15:08;;;;;;;1.60;0.77;;;15.70;99.90;;;;;;5074880;28;20444;-81
2023/09/05 05:17:34;;;;;;;2.70;1.00;;;15.70;99.90;;;;;;5074263;28;21032;-81
2023/09/05 05:20:04;;;;;;;0.73;0.73;;;15.70;99.90;;;;;;5074571;28;20498;-81
2023/09/05 05:22:31;;;;;;;1.50;0.63;;;15.80;99.90;;;;;;5074274;28;20449;-81
2023/09/05 05:24:59;;;;;;;2.13;1.33;;;15.80;99.90;;;;;;5074584;28;20459;-81
2023/09/05 05:27:26;;;;;;;1.53;1.00;;;15.80;99.90;;;;;;5074308;28;20800;-81
2023/09/05 05:29:53;;;;;;;1.73;1.53;;;15.90;99.90;;;;;;5074736;28;20929;-81
2023/09/05 05:32:20;;;;;;;1.07;0.97;;;15.90;99.90;;;;;;5074939;28;20452;-81
2023/09/05 05:34:48;;;;;;;2.10;1.07;;;15.90;99.90;;;;;;5074353;28;20448;-81
2023/09/05 05:37:16;;;;;;;1.00;0.90;;;15.90;99.90;;;;;;5074156;28;20487;-81
2023/09/05 05:39:43;;;;;;;3.50;1.30;;;15.90;99.90;;;;;;5074248;28;20457;-81
2023/09/05 05:42:11;;;;;;;1.00;0.90;;;15.90;99.90;;;;;;5074213;28;20449;-81
2023/09/05 05:44:39;;;;;;;1.33;1.07;;;15.80;99.90;;;;;;5074172;28;20456;-80
2023/09/05 05:47:06;;;;;;;2.17;0.90;;;15.80;99.90;;;;;;5074187;28;20521;-81
2023/09/05 05:49:33;;;;;;;0.70;0.70;;;15.80;99.90;;;;;;5073944;28;20969;-81
2023/09/05 05:52:00;;;;;;;0.90;0.80;;;15.90;99.90;;;;;;5073746;28;20970;-81
2023/09/05 05:54:28;;;;;;;0.90;0.80;;;15.90;99.90;;;;;;5073951;28;20449;-81
2023/09/05 05:56:56;;;;;;;2.67;1.40;;;15.90;99.90;;;;;;5073757;28;20465;-81
2023/09/05 05:59:25;;;;;;;6.93;1.23;;;16.00;99.90;;;;;;5073891;28;20437;-81
2023/09/05 06:01:52;;;;;;;1.63;0.90;;;16.10;99.90;;;;;;5073465;28;20993;-81
2023/09/05 06:04:19;;;;;;;1.10;0.90;;;16.20;99.90;;;;;;5073588;28;20437;-81
2023/09/05 06:06:48;;;;;;;2.77;1.30;;;16.40;99.90;;;;;;5073288;28;20986;-81
2023/09/05 06:09:16;;;;;;;0.73;0.73;;;16.50;99.90;;;;;;5073908;28;20437;-81
2023/09/05 06:11:43;;;;;;;2.20;0.97;;;16.50;99.90;;;;;;5073381;28;20453;-81
2023/09/05 06:14:10;;;;;;;0.90;0.90;;;16.60;99.90;;;;;;5073601;28;20441;-81
2023/09/05 06:16:38;;;;;;;1.80;1.03;;;16.60;99.90;;;;;;5073598;28;20505;-81
2023/09/05 06:19:07;;;;;;;1.30;1.20;;;16.70;99.90;;;;;;5073303;28;20484;-81
2023/09/05 06:21:34;;;;;;;1.27;1.17;;;16.80;99.90;;;;;;5073744;28;20448;-81
2023/09/05 06:24:00;;;;;;;1.13;1.00;;;17.00;99.90;;;;;;5073437;28;20547;-81
2023/09/05 06:26:27;;;;;;;0.70;0.70;;;17.10;99.90;;;;;;5073410;28;20472;-82
2023/09/05 06:28:54;;;;;;;0.90;0.90;;;17.30;99.90;;;;;;5073048;28;20469;-81
2023/09/05 06:31:21;;;;;;;5.33;1.27;;;17.50;99.90;;;;;;5073158;28;20448;-81
2023/09/05 06:33:49;;;;;;;1.47;0.90;;;17.80;99.90;;;;;;5073331;28;20472;-81
2023/09/05 06:36:16;;;;;;;1.13;0.80;;;17.90;99.90;;;;;;5073708;28;20469;-81
2023/09/05 06:38:42;;;;;;;2.40;0.90;;;18.10;99.90;;;;;;5073010;28;20480;-81
2023/09/05 06:41:11;;;;;;;1.20;1.00;;;18.30;99.90;;;;;;5073348;28;20448;-82
2023/09/05 06:43:38;;;;;;;3.63;0.87;;;18.40;99.90;;;;;;5073170;28;20506;-81
2023/09/05 06:46:06;;;;;;;2.13;1.17;;;18.50;99.90;;;;;;5072914;28;20460;-82
2023/09/05 06:48:35;;;;;;;1.80;1.07;;;18.70;99.90;;;;;;5073002;28;20437;-81
2023/09/05 06:51:03;;;;;;;3.30;1.10;;;18.80;99.90;;;;;;5073153;28;20459;-81
2023/09/05 06:53:30;;;;;;;1.43;1.00;;;18.90;99.90;;;;;;5072370;28;20435;-82
2023/09/05 06:55:57;;;;;;;1.87;0.97;;;18.90;99.90;;;;;;5073260;28;20850;-81
2023/09/05 06:58:25;;;;;;;3.00;1.23;;;19.10;99.90;;;;;;5072814;28;21009;-81
2023/09/05 07:00:54;;;;;;;1.40;0.80;;;19.20;99.90;;;;;;5073181;28;20478;-81
2023/09/05 07:03:21;;;;;;;0.80;0.80;;;19.30;99.90;;;;;;5073078;28;20493;-82
2023/09/05 07:05:48;;;;;;;0.90;0.90;;;19.30;99.90;;;;;;5072722;28;20978;-82
2023/09/05 07:08:16;;;;;;;1.67;0.87;;;19.30;99.90;;;;;;5072937;28;20945;-81
2023/09/05 07:10:43;;;;;;;1.73;1.00;;;19.40;99.90;;;;;;5072525;28;20441;-82
2023/09/05 07:13:10;;;;;;;0.70;0.60;;;19.50;99.90;;;;;;5073700;28;20438;-81
2023/09/05 07:15:37;;;;;;;1.67;0.80;;;19.60;99.90;;;;;;5072599;28;21016;-81
2023/09/05 07:18:04;;;;;;;1.33;1.20;;;19.80;99.90;;;;;;5072554;28;20932;-81
2023/09/05 07:20:31;;;;;;;1.23;0.77;;;19.90;99.90;;;;;;5072571;28;20447;-82
2023/09/05 07:22:58;;;;;;;0.90;0.90;;;20.00;99.90;;;;;;5072934;28;21021;-81
2023/09/05 07:25:26;;;;;;;0.80;0.60;;;20.00;99.90;;;;;;5072800;28;20474;-81
2023/09/05 07:27:53;;;;;;;0.80;0.80;;;20.10;99.90;;;;;;5072302;28;20527;-80
2023/09/05 07:30:20;;;;;;;1.60;0.70;;;20.10;99.90;;;;;;5072784;28;20451;-81
2023/09/05 07:32:46;;;;;;;1.07;0.90;;;20.30;99.90;;;;;;5072488;28;20480;-81
2023/09/05 07:35:13;;;;;;;0.70;0.70;;;20.40;99.90;;;;;;5072749;28;20417;-82
2023/09/05 07:37:41;;;;;;;1.10;0.80;;;20.40;99.90;;;;;;5072438;28;20972;-82
2023/09/05 07:40:11;;;;;;;1.40;1.07;;;20.50;99.90;;;;;;5072464;28;21032;-80
2023/09/05 07:42:41;;;;;;;0.70;0.70;;;20.50;99.90;;;;;;5068612;28;20462;-82
2023/09/05 07:45:09;;;;;;;1.00;0.90;;;20.60;99.90;;;;;;5052627;28;20444;-81
2023/09/05 07:47:36;;;;;;;1.00;0.90;;;20.80;99.90;;;;;;5052765;28;20452;-78
2023/09/05 07:50:03;;;;;;;3.13;1.00;;;20.80;99.90;;;;;;5052957;28;20449;-81
2023/09/05 07:52:30;;;;;;;1.50;1.00;;;20.80;99.90;;;;;;5052533;28;20532;-81
2023/09/05 07:54:57;;;;;;;0.70;0.70;;;20.90;99.90;;;;;;5052775;28;20448;-81
2023/09/05 07:57:23;;;;;;;0.80;0.80;;;21.20;99.90;;;;;;5052185;28;21016;-81
2023/09/05 07:59:52;;;;;;;0.87;0.83;;;21.30;99.90;;;;;;5052975;28;20492;-82
2023/09/05 08:02:18;;;;;;;1.40;1.00;;;21.40;99.90;;;;;;5052677;28;20441;-81
2023/09/05 08:04:45;;;;;;;1.00;0.70;;;21.50;99.90;;;;;;5052628;28;20445;-81
2023/09/05 08:07:12;;;;;;;1.97;0.80;;;21.60;99.90;;;;;;5055303;28;20854;-82
2023/09/05 08:09:39;;;;;;;2.00;0.97;;;21.60;99.90;;;;;;5056159;28;20467;-81
2023/09/05 08:12:06;;;;;;;0.83;0.80;;;21.80;99.90;;;;;;5056057;28;20447;-81
2023/09/05 08:14:33;;;;;;;2.30;1.30;;;22.00;99.90;;;;;;5056200;28;20445;-81
2023/09/05 08:17:01;;;;;;;0.70;0.70;;;22.10;99.90;;;;;;5055953;28;20465;-81
2023/09/05 08:19:27;;;;;;;0.87;0.70;;;22.20;99.90;;;;;;5055890;28;20481;-83
2023/09/05 08:21:54;;;;;;;2.13;1.20;;;22.20;99.90;;;;;;5055838;28;20445;-83
2023/09/05 08:24:21;;;;;;;1.00;0.97;;;22.20;99.90;;;;;;5056405;28;20449;-82
2023/09/05 08:26:48;;;;;;;0.90;0.90;;;22.30;99.90;;;;;;5055591;28;20499;-83
2023/09/05 08:29:15;;;;;;;1.00;0.90;;;22.40;99.90;;;;;;5055417;28;20481;-80
2023/09/05 08:31:41;;;;;;;1.20;1.10;;;22.50;99.90;;;;;;5055423;28;20525;-82
2023/09/05 08:34:10;;;;;;;1.00;0.90;;;22.60;99.90;;;;;;5055690;28;20457;-83
2023/09/05 08:36:36;;;;;;;4.93;0.80;;;22.70;99.90;;;;;;5055496;28;20468;-82
2023/09/05 08:39:04;;;;;;;0.90;0.70;;;23.00;99.90;;;;;;5055510;28;20479;-83
2023/09/05 08:41:31;;;;;;;0.50;0.50;;;23.00;99.90;;;;;;5055507;28;20445;-82
2023/09/05 08:43:59;;;;;;;1.93;0.80;;;23.00;99.90;;;;;;5055230;28;20453;-82
2023/09/05 08:46:26;;;;;;;1.43;1.13;;;23.10;99.90;;;;;;5055367;28;20591;-82
2023/09/05 08:48:53;;;;;;;6.53;0.80;;;23.20;99.90;;;;;;5055174;28;20565;-83
2023/09/05 08:51:22;;;;;;;0.77;0.77;;;23.30;99.90;;;;;;5055193;28;20214;-82
2023/09/05 08:53:55;;;;;;;1.70;0.97;;;23.40;99.90;;;;;;5055279;28;20203;-84
2023/09/05 08:56:23;;;;;;;0.60;0.60;;;23.50;99.90;;;;;;5055420;28;20223;-82
2023/09/05 08:58:52;;;;;;;1.50;0.70;;;23.60;99.90;;;;;;5055147;28;20261;-84
2023/09/05 09:01:19;;;;;;;0.98;0.80;;;23.70;99.90;;;;;;5055177;28;20213;-82
2023/09/05 09:03:46;;;;;;;2.33;0.90;;;23.70;99.90;;;;;;5055091;28;20205;-82
2023/09/05 09:06:13;;;;;;;1.05;0.95;;;23.90;99.90;;;;;;5054996;28;20219;-83
2023/09/05 09:08:43;;;;;;;3.75;0.60;;;24.10;99.90;;;;;;5054813;28;20260;-83
2023/09/05 09:11:11;;;;;;;0.95;0.68;;;24.40;99.90;;;;;;5054756;28;20191;-80
2023/09/05 09:13:38;;;;;;;0.77;0.68;;;24.50;99.90;;;;;;5054659;28;20746;-83
2023/09/05 09:16:05;;;;;;;1.13;0.80;;;24.50;99.90;;;;;;5054577;28;20219;-82
2023/09/05 09:18:32;;;;;;;0.75;0.70;;;24.70;99.90;;;;;;5054245;28;20219;-81
2023/09/05 09:21:04;;;;;;;0.70;0.70;;;24.70;99.90;;;;;;5054526;28;20290;-84
2023/09/05 09:23:33;;;;;;;0.80;0.80;;;25.00;99.90;;;;;;5054744;28;20197;-83
2023/09/05 09:26:02;;;;;;;0.80;0.65;;;25.20;99.90;;;;;;5054579;28;20222;-83
2023/09/05 09:28:31;;;;;;;0.70;0.70;;;25.30;99.90;;;;;;5054293;28;20247;-79
2023/09/05 09:31:01;;;;;;;0.60;0.60;;;25.40;99.90;;;;;;5054523;28;20203;-83
2023/09/05 09:33:29;;;;;;;0.70;0.70;;;25.30;99.90;;;;;;5054225;28;20624;-83
2023/09/05 09:36:06;;;;;;;1.38;0.60;;;25.30;99.90;;;;;;5068641;28;20592;-83
2023/09/05 09:38:34;;;;;;;2.65;0.80;;;25.30;99.90;;;;;;5074320;28;20206;-83
2023/09/05 09:41:04;;;;;;;0.98;0.60;;;25.30;99.90;;;;;;5074116;28;20201;-82
2023/09/05 09:43:31;;;;;;;0.80;0.60;;;25.40;99.90;;;;;;5074316;28;20567;-83
2023/09/05 09:45:59;;;;;;;0.63;0.63;;;25.30;99.90;;;;;;5074181;28;20590;-80
2023/09/05 09:48:30;;;;;;;0.80;0.65;;;25.40;99.90;;;;;;5074213;28;20205;-84
2023/09/05 09:50:59;;;;;;;1.23;0.85;;;25.40;99.90;;;;;;5074169;28;20202;-83
2023/09/05 09:53:34;;;;;;;1.00;0.90;;;25.40;99.90;;;;;;5073776;28;20264;-82
2023/09/05 09:56:06;;;;;;;0.75;0.75;;;25.50;99.90;;;;;;5074051;28;20280;-83
2023/09/05 09:58:34;;;;;;;1.05;0.95;;;25.60;99.90;;;;;;5074205;28;20301;-82
2023/09/05 10:01:02;;;;;;;0.70;0.70;;;25.60;99.90;;;;;;5073919;28;20179;-83
2023/09/05 10:03:29;;;;;;;1.60;0.70;;;25.60;99.90;;;;;;5073944;28;20552;-83
2023/09/05 10:05:57;;;;;;;0.70;0.70;;;25.60;99.90;;;;;;5073722;28;20222;-82
2023/09/05 10:08:25;;;;;;;0.90;0.60;;;25.60;99.90;;;;;;5073785;28;20202;-82
2023/09/05 10:10:54;;;;;;;0.70;0.60;;;25.50;99.90;;;;;;5073599;28;20245;-82
2023/09/05 10:13:27;;;;;;;0.70;0.60;;;25.60;99.90;;;;;;5073454;28;20744;-82
2023/09/05 10:15:55;;;;;;;0.90;0.90;;;25.60;99.90;;;;;;5073643;28;20226;-83
2023/09/05 10:18:23;;;;;;;0.70;0.70;;;25.70;99.90;;;;;;5073610;28;20202;-83
2023/09/05 10:20:52;;;;;;;0.70;0.70;;;25.70;99.90;;;;;;5073721;28;20189;-81
2023/09/05 10:23:19;;;;;;;0.77;0.77;;;25.80;99.90;;;;;;5073262;28;20216;-83
2023/09/05 10:25:48;;;;;;;0.70;0.70;;;26.00;99.90;;;;;;5073527;28;20565;-82
2023/09/05 10:28:15;;;;;;;0.82;0.77;;;26.00;99.90;;;;;;5072545;28;20230;-80
2023/09/05 10:30:49;;;;;;;0.68;0.68;;;26.10;99.90;;;;;;5073307;28;20202;-82
2023/09/05 10:33:17;;;;;;;0.77;0.77;;;26.00;99.90;;;;;;5073518;28;20628;-81
2023/09/05 10:35:45;;;;;;;1.38;0.70;;;25.80;99.90;;;;;;5073371;28;20225;-82
2023/09/05 10:38:13;;;;;;;0.63;0.63;;;25.80;99.90;;;;;;5073533;28;20197;-83
2023/09/05 10:40:41;;;;;;;0.75;0.70;;;25.80;99.90;;;;;;5073001;28;20214;-82
2023/09/05 10:43:09;;;;;;;0.80;0.63;;;25.90;99.90;;;;;;5073400;28;20293;-81
2023/09/05 10:45:37;;;;;;;0.80;0.70;;;26.00;99.90;;;;;;5073260;28;20231;-82
2023/09/05 10:48:11;;;;;;;1.77;0.98;;;26.30;99.90;;;;;;5073295;28;20209;-82
2023/09/05 10:51:07;;;;;;;1.00;0.90;;;26.40;99.90;;;;;;5073041;28;20643;-81
2023/09/05 10:53:35;;;;;;;1.20;0.85;;;26.50;99.90;;;;;;5073072;28;20194;-83
2023/09/05 10:56:02;;;;;;;1.58;0.80;;;26.50;99.90;;;;;;5073135;28;20565;-83
2023/09/05 10:58:46;;;;;;;0.60;0.60;;;26.60;99.90;;;;;;5072814;28;20209;-84
2023/09/05 11:01:54;;;;;;;1.10;0.70;;;26.80;99.90;;;;;;5072944;28;20186;-82
2023/09/05 11:04:29;;;;;;;0.60;0.60;;;26.70;99.90;;;;;;5073166;28;20225;-83
2023/09/05 11:07:08;;;;;;;0.82;0.70;;;26.80;99.90;;;;;;5073258;28;20221;-82
2023/09/05 11:09:48;;;;;;;0.77;0.60;;;26.80;99.90;;;;;;5075895;28;20701;-81
2023/09/05 11:12:16;;;;;;;0.85;0.70;;;26.80;99.90;;;;;;5076511;28;20197;-85
2023/09/05 11:14:43;;;;;;;0.80;0.80;;;26.70;99.90;;;;;;5075585;28;20197;-84
2023/09/05 11:17:15;;;;;;;0.88;0.80;;;26.80;99.90;;;;;;5072955;28;20229;-82
2023/09/05 11:19:46;;;;;;;1.17;0.65;;;26.80;99.90;;;;;;5072968;28;20226;-82
2023/09/05 11:22:17;;;;;;;0.70;0.70;;;26.70;99.90;;;;;;5072755;28;20197;-83
2023/09/05 11:24:49;;;;;;;0.70;0.70;;;26.70;99.90;;;;;;5072778;28;20200;-83
2023/09/05 11:27:17;;;;;;;0.80;0.70;;;26.80;99.90;;;;;;5072886;28;20225;-81
2023/09/05 11:29:45;;;;;;;0.68;0.65;;;26.60;99.90;;;;;;5072763;28;20241;-83
2023/09/05 11:32:14;;;;;;;0.70;0.60;;;26.60;99.90;;;;;;5072908;28;20213;-83
2023/09/05 11:34:43;;;;;;;1.02;0.95;;;26.60;99.90;;;;;;5072868;28;20252;-83
2023/09/05 11:37:15;;;;;;;0.70;0.70;;;26.60;99.90;;;;;;5072702;28;20600;-84
2023/09/05 11:39:41;;;;;;;0.88;0.77;;;26.80;99.90;;;;;;5073480;28;20206;-83
2023/09/05 11:42:22;;;;;;;0.80;0.70;;;26.60;99.90;;;;;;5076301;28;20209;-84
2023/09/05 11:44:49;;;;;;;0.60;0.60;;;26.70;99.90;;;;;;5076626;28;20277;-83
2023/09/05 11:47:17;;;;;;;1.20;0.60;;;26.80;99.90;;;;;;5076532;28;20588;-83
2023/09/05 11:49:48;;;;;;;0.60;0.60;;;26.80;99.90;;;;;;5076522;28;20202;-83
2023/09/05 11:52:16;;;;;;;0.95;0.55;;;26.50;99.90;;;;;;5076273;28;20554;-83
2023/09/05 11:54:43;;;;;;;0.80;0.80;;;26.50;99.90;;;;;;5076338;28;20198;-84
2023/09/05 11:57:10;;;;;;;0.85;0.77;;;26.50;99.90;;;;;;5075874;28;20218;-84
2023/09/05 11:59:39;;;;;;;0.68;0.63;;;26.60;99.90;;;;;;5075906;28;20642;-83
2023/09/05 12:02:08;;;;;;;1.27;1.08;;;26.60;99.90;;;;;;5076256;28;20209;-83
2023/09/05 12:04:35;;;;;;;0.73;0.70;;;26.50;99.90;;;;;;5076047;28;20251;-83
2023/09/05 12:07:06;;;;;;;1.63;0.90;;;26.50;99.90;;;;;;5075841;28;20214;-83
2023/09/05 12:09:33;;;;;;;1.58;0.80;;;26.30;99.90;;;;;;5075908;28;20190;-84
2023/09/05 12:12:10;;;;;;;0.70;0.70;;;26.30;99.90;;;;;;5076106;28;20193;-83
2023/09/05 12:15:05;;;;;;;0.88;0.88;;;26.30;99.90;;;;;;5076093;28;20201;-84
2023/09/05 12:17:32;;;;;;;0.70;0.70;;;26.30;99.90;;;;;;5040458;28;20202;-83
2023/09/05 12:19:58;;;;;;;0.70;0.70;;;26.30;99.90;;;;;;5075864;28;20218;-83
2023/09/05 12:22:29;;;;;;;0.80;0.80;;;26.30;99.90;;;;;;5075890;28;20201;-83
2023/09/05 12:25:16;;;;;;;0.63;0.63;;;26.10;99.90;;;;;;5075740;28;20678;-83
2023/09/05 12:27:44;;;;;;;0.60;0.60;;;26.10;99.90;;;;;;5075464;28;20206;-83
2023/09/05 12:30:27;;;;;;;0.70;0.70;;;26.20;99.90;;;;;;5075502;28;20186;-82
2023/09/05 12:32:55;;;;;;;0.80;0.60;;;26.00;99.30;;;;;;5075751;28;20195;-83
2023/09/05 12:35:22;;;;;;;0.88;0.85;;;25.80;99.90;;;;;;5075357;28;20222;-83
2023/09/05 12:37:51;;;;;;;1.00;0.90;;;25.80;99.90;;;;;;5075373;28;20198;-83
2023/09/05 12:40:17;;;;;;;0.60;0.60;;;25.80;99.90;;;;;;5075512;28;20222;-83
2023/09/05 12:42:45;;;;;;;0.75;0.60;;;25.90;99.90;;;;;;5075501;28;20214;-83
2023/09/05 12:45:12;;;;;;;0.60;0.60;;;25.80;99.60;;;;;;5075132;28;20210;-83
2023/09/05 12:47:39;;;;;;;1.42;0.63;;;25.70;99.90;;;;;;5075437;28;20202;-83
2023/09/05 12:50:12;;;;;;;2.92;0.70;;;25.60;99.90;;;;;;5075413;28;20292;-85
2023/09/05 12:52:41;;;;;;;1.02;0.70;;;25.70;99.90;;;;;;5074197;28;20240;-83
2023/09/05 12:55:10;;;;;;;0.73;0.60;;;25.70;99.90;;;;;;5074917;28;20678;-82